createdAt,value
2023-11-30T00:00:44.920Z,8.98
2023-11-30T00:03:12.517Z,13.68
2023-11-30T00:05:39.872Z,14.35
2023-11-30T00:08:07.432Z,15.00
2023-11-30T00:10:34.885Z,10.82
2023-11-30T00:13:02.390Z,12.27
2023-11-30T00:15:29.888Z,12.38
2023-11-30T00:17:57.375Z,10.15
2023-11-30T00:20:24.887Z,11.10
2023-11-30T00:22:52.364Z,13.20
2023-11-30T00:25:19.637Z,15.27
2023-11-30T00:27:47.166Z,11.70
2023-11-30T00:30:14.885Z,12.73
2023-11-30T00:32:42.324Z,12.85
2023-11-30T00:35:09.835Z,14.02
2023-11-30T00:37:38.457Z,14.88
2023-11-30T00:40:06.397Z,14.85
2023-11-30T00:42:33.914Z,14.38
2023-11-30T00:45:01.507Z,12.57
2023-11-30T00:47:28.981Z,15.32
2023-11-30T00:49:57.833Z,12.18
2023-11-30T00:52:25.252Z,14.13
2023-11-30T00:54:52.717Z,15.77
2023-11-30T00:57:20.061Z,13.50
2023-11-30T00:59:47.568Z,14.35
2023-11-30T01:02:15.062Z,14.40
2023-11-30T01:04:43.589Z,14.35
2023-11-30T01:07:10.921Z,16.48
2023-11-30T01:09:41.478Z,15.63
2023-11-30T01:12:09.347Z,14.15
2023-11-30T01:14:36.853Z,15.30
2023-11-30T01:17:05.275Z,9.80
2023-11-30T01:19:32.613Z,12.48
2023-11-30T01:22:00.210Z,10.85
2023-11-30T01:24:27.672Z,16.45
2023-11-30T01:26:55.325Z,14.63
2023-11-30T01:29:23.067Z,12.02
2023-11-30T01:31:50.544Z,12.82
2023-11-30T01:34:18.153Z,15.95
2023-11-30T01:36:45.828Z,11.18
2023-11-30T01:39:15.350Z,14.35
2023-11-30T01:41:43.748Z,10.40
2023-11-30T01:44:11.971Z,14.43
2023-11-30T01:46:39.944Z,11.52
2023-11-30T01:49:09.069Z,15.80
2023-11-30T01:51:37.981Z,12.85
2023-11-30T01:54:07.273Z,10.23
2023-11-30T01:56:37.458Z,14.60
2023-11-30T01:59:05.093Z,14.20
2023-11-30T02:01:32.624Z,9.02
2023-11-30T02:04:12.726Z,12.00
2023-11-30T02:06:41.142Z,13.10
2023-11-30T02:09:08.612Z,11.32
2023-11-30T02:11:36.227Z,15.63
2023-11-30T02:14:04.723Z,14.55
2023-11-30T02:16:32.331Z,8.98
2023-11-30T02:19:01.060Z,13.10
2023-11-30T02:21:28.621Z,10.60
2023-11-30T02:23:56.075Z,10.88
2023-11-30T02:26:24.527Z,14.45
2023-11-30T02:28:51.867Z,15.30
2023-11-30T02:31:19.428Z,13.73
2023-11-30T02:33:46.970Z,10.93
2023-11-30T02:36:14.596Z,12.82
2023-11-30T02:38:41.967Z,11.25
2023-11-30T02:41:10.079Z,13.43
2023-11-30T02:43:38.409Z,17.20
2023-11-30T02:46:09.953Z,12.18
2023-11-30T02:48:40.776Z,12.02
2023-11-30T02:51:08.516Z,12.10
2023-11-30T02:53:36.007Z,11.23
2023-11-30T02:56:03.769Z,14.15
2023-11-30T02:58:31.149Z,10.48
2023-11-30T03:00:58.526Z,10.85
2023-11-30T03:03:26.810Z,14.75
2023-11-30T03:05:54.272Z,16.27
2023-11-30T03:08:21.744Z,10.07
2023-11-30T03:10:49.103Z,13.50
2023-11-30T03:13:16.473Z,10.27
2023-11-30T03:15:48.352Z,12.02
2023-11-30T03:18:17.064Z,11.15
2023-11-30T03:20:44.470Z,11.75
2023-11-30T03:23:12.122Z,10.65
2023-11-30T03:25:41.529Z,14.32
2023-11-30T03:28:08.992Z,12.18
2023-11-30T03:30:36.498Z,10.88
2023-11-30T03:33:04.240Z,11.85
2023-11-30T03:35:31.628Z,11.90
2023-11-30T03:37:59.199Z,11.75
2023-11-30T03:40:26.493Z,10.63
2023-11-30T03:42:53.847Z,11.95
2023-11-30T03:45:23.164Z,12.38
2023-11-30T03:47:50.749Z,11.07
2023-11-30T03:50:18.104Z,12.75
2023-11-30T03:52:45.615Z,11.18
2023-11-30T03:55:13.373Z,9.88
2023-11-30T03:57:40.863Z,10.40
2023-11-30T04:00:14.329Z,11.68
2023-11-30T04:02:43.090Z,11.77
2023-11-30T04:05:15.123Z,11.02
2023-11-30T04:07:43.480Z,14.60
2023-11-30T04:10:14.306Z,14.60
2023-11-30T04:12:42.736Z,14.45
2023-11-30T04:15:10.673Z,13.35
2023-11-30T04:17:38.528Z,11.45
2023-11-30T04:20:06.646Z,9.65
2023-11-30T04:22:35.759Z,12.05
2023-11-30T04:25:03.109Z,11.45
2023-11-30T04:27:30.725Z,10.85
2023-11-30T04:29:58.203Z,12.15
2023-11-30T04:32:25.742Z,10.45
2023-11-30T04:34:53.159Z,12.98
2023-11-30T04:37:20.640Z,12.43
2023-11-30T04:39:49.109Z,13.38
2023-11-30T04:42:16.690Z,10.63
2023-11-30T04:44:44.173Z,10.23
2023-11-30T04:47:11.622Z,13.13
2023-11-30T04:49:39.092Z,12.38
2023-11-30T04:52:06.731Z,9.40
2023-11-30T04:54:34.219Z,13.95
2023-11-30T04:57:01.806Z,13.60
2023-11-30T04:59:29.159Z,9.85
2023-11-30T05:01:56.844Z,13.10
2023-11-30T05:04:24.377Z,11.88
2023-11-30T05:06:51.937Z,11.55
2023-11-30T05:09:19.404Z,11.13
2023-11-30T05:11:47.221Z,10.27
2023-11-30T05:14:14.609Z,10.73
2023-11-30T05:16:42.079Z,15.85
2023-11-30T05:19:09.359Z,10.32
2023-11-30T05:21:36.966Z,10.32
2023-11-30T05:24:04.774Z,12.63
2023-11-30T05:26:32.287Z,9.13
2023-11-30T05:28:59.829Z,8.65
2023-11-30T05:31:27.476Z,12.00
2023-11-30T05:33:55.107Z,9.88
2023-11-30T05:36:23.339Z,13.43
2023-11-30T05:38:51.747Z,11.13
2023-11-30T05:41:19.196Z,12.35
2023-11-30T05:43:46.610Z,11.88
2023-11-30T05:46:14.150Z,9.70
2023-11-30T05:48:41.610Z,10.90
2023-11-30T05:51:09.624Z,9.55
2023-11-30T05:53:37.291Z,9.68
2023-11-30T05:56:05.077Z,10.38
2023-11-30T05:58:32.370Z,10.30
2023-11-30T06:01:00.275Z,9.30
2023-11-30T06:03:27.816Z,11.48
2023-11-30T06:05:55.252Z,13.25
2023-11-30T06:08:22.664Z,10.30
2023-11-30T06:10:49.977Z,9.77
2023-11-30T06:13:17.402Z,10.10
2023-11-30T06:15:45.791Z,9.50
2023-11-30T06:18:13.132Z,14.25
2023-11-30T06:20:40.621Z,13.20
2023-11-30T06:23:07.995Z,12.70
2023-11-30T06:25:35.384Z,12.18
2023-11-30T06:28:02.674Z,8.95
2023-11-30T06:30:30.156Z,9.73
2023-11-30T06:32:57.823Z,11.05
2023-11-30T06:35:25.215Z,9.73
2023-11-30T06:37:52.669Z,11.23
2023-11-30T06:40:20.106Z,13.25
2023-11-30T06:42:47.457Z,13.00
2023-11-30T06:45:15.035Z,11.77
2023-11-30T06:47:42.362Z,10.43
2023-11-30T06:50:10.395Z,10.07
2023-11-30T06:52:37.709Z,9.73
2023-11-30T06:55:05.494Z,9.80
2023-11-30T06:57:32.906Z,12.30
2023-11-30T07:00:00.649Z,10.70
2023-11-30T07:02:28.188Z,11.98
2023-11-30T07:04:55.724Z,13.95
2023-11-30T07:07:31.178Z,12.50
2023-11-30T07:10:03.317Z,12.57
2023-11-30T07:12:30.726Z,11.63
2023-11-30T07:14:58.453Z,11.80
2023-11-30T07:17:25.929Z,12.35
2023-11-30T07:19:54.438Z,12.15
2023-11-30T07:22:23.508Z,15.10
2023-11-30T07:24:51.137Z,11.18
2023-11-30T07:27:19.626Z,12.65
2023-11-30T07:29:47.840Z,11.73
2023-11-30T07:32:19.253Z,14.05
2023-11-30T07:34:47.032Z,11.73
2023-11-30T07:37:18.155Z,11.55
2023-11-30T07:39:45.750Z,13.10
2023-11-30T07:42:26.053Z,12.60
2023-11-30T07:45:00.754Z,10.85
2023-11-30T07:47:28.603Z,11.73
2023-11-30T07:49:56.311Z,9.53
2023-11-30T07:52:23.635Z,11.00
2023-11-30T07:54:51.308Z,14.50
2023-11-30T07:57:19.481Z,11.75
2023-11-30T07:59:47.081Z,13.02
2023-11-30T08:02:14.516Z,11.57
2023-11-30T08:04:42.816Z,12.85
2023-11-30T08:07:10.721Z,10.10
2023-11-30T08:09:38.287Z,14.95
2023-11-30T08:12:06.157Z,11.73
2023-11-30T08:14:33.665Z,13.60
2023-11-30T08:17:05.865Z,11.70
2023-11-30T08:19:34.325Z,13.57
2023-11-30T08:22:01.748Z,10.50
2023-11-30T08:24:29.792Z,11.80
2023-11-30T08:26:57.245Z,11.63
2023-11-30T08:29:24.612Z,14.10
2023-11-30T08:31:52.077Z,10.68
2023-11-30T08:34:19.464Z,13.70
2023-11-30T08:36:48.689Z,15.00
2023-11-30T08:39:24.170Z,11.77
2023-11-30T08:41:51.990Z,13.13
2023-11-30T08:44:19.375Z,13.82
2023-11-30T08:46:47.136Z,10.98
2023-11-30T08:49:14.610Z,14.25
2023-11-30T08:51:45.856Z,11.77
2023-11-30T08:54:13.953Z,11.68
2023-11-30T08:56:41.386Z,11.70
2023-11-30T08:59:08.817Z,13.35
2023-11-30T09:01:37.714Z,14.38
2023-11-30T09:04:06.674Z,12.88
2023-11-30T09:06:34.983Z,12.02
2023-11-30T09:09:02.897Z,13.27
2023-11-30T09:11:31.697Z,14.60
2023-11-30T09:13:59.402Z,11.85
2023-11-30T09:16:27.809Z,11.70
2023-11-30T09:18:55.694Z,13.18
2023-11-30T09:21:25.550Z,11.07
2023-11-30T09:23:54.138Z,9.13
2023-11-30T09:26:23.164Z,14.13
2023-11-30T09:28:50.876Z,17.60
2023-11-30T09:31:18.524Z,12.77
2023-11-30T09:33:46.037Z,9.82
2023-11-30T09:36:14.408Z,12.80
2023-11-30T09:38:42.507Z,13.90
2023-11-30T09:41:13.970Z,12.38
2023-11-30T09:43:41.455Z,14.95
2023-11-30T09:46:10.762Z,13.18
2023-11-30T09:48:38.665Z,14.93
2023-11-30T09:51:06.563Z,17.05
2023-11-30T09:53:34.468Z,12.00
2023-11-30T09:56:01.872Z,13.88
2023-11-30T09:58:29.521Z,12.40
2023-11-30T10:00:57.080Z,12.07
2023-11-30T10:03:35.326Z,14.02
2023-11-30T10:06:03.016Z,12.57
2023-11-30T10:08:30.379Z,13.02
2023-11-30T10:10:57.875Z,13.23
2023-11-30T10:13:26.626Z,13.77
2023-11-30T10:15:55.081Z,14.05
2023-11-30T10:18:22.771Z,17.48
2023-11-30T10:20:50.374Z,11.43
2023-11-30T10:23:17.698Z,10.82
2023-11-30T10:25:47.504Z,12.40
2023-11-30T10:28:15.293Z,14.90
2023-11-30T10:30:44.193Z,12.13
2023-11-30T10:33:22.110Z,12.77
2023-11-30T10:35:54.410Z,8.52
2023-11-30T10:38:32.169Z,13.07
2023-11-30T10:41:10.226Z,8.23
2023-11-30T10:43:39.201Z,12.98
2023-11-30T10:46:08.772Z,13.75
2023-11-30T10:48:40.788Z,9.93
2023-11-30T10:51:13.115Z,11.30
2023-11-30T10:53:53.091Z,10.25
2023-11-30T10:56:21.258Z,12.55
2023-11-30T10:58:48.676Z,11.95
2023-11-30T11:01:16.297Z,8.63
2023-11-30T11:03:50.104Z,11.60
2023-11-30T11:06:17.747Z,10.45
2023-11-30T11:09:07.473Z,11.07
2023-11-30T11:11:38.960Z,11.40
2023-11-30T11:14:06.456Z,15.43
2023-11-30T11:16:36.254Z,11.10
2023-11-30T11:19:06.948Z,10.88
2023-11-30T11:21:39.645Z,9.30
2023-11-30T11:24:08.957Z,15.00
2023-11-30T11:26:43.323Z,11.75
2023-11-30T11:29:13.763Z,10.70
2023-11-30T11:31:43.369Z,13.23
2023-11-30T11:34:11.687Z,11.60
2023-11-30T11:36:39.938Z,12.95
2023-11-30T11:39:07.842Z,12.40
2023-11-30T11:41:35.165Z,12.00
2023-11-30T11:44:02.583Z,13.40
2023-11-30T11:46:31.287Z,12.13
2023-11-30T11:48:58.715Z,9.88
2023-11-30T11:51:26.496Z,8.57
2023-11-30T11:53:55.388Z,14.73
2023-11-30T11:56:22.888Z,14.98
2023-11-30T11:58:52.349Z,11.88
2023-11-30T12:01:19.792Z,13.63
2023-11-30T12:03:51.865Z,9.70
2023-11-30T12:06:29.899Z,12.77
2023-11-30T12:08:57.391Z,13.98
2023-11-30T12:11:24.918Z,15.48
2023-11-30T12:13:52.578Z,6.95
2023-11-30T12:16:19.930Z,15.57
2023-11-30T12:18:47.469Z,10.63
2023-11-30T12:21:14.913Z,9.75
2023-11-30T12:23:42.717Z,10.48
2023-11-30T12:26:10.078Z,13.23
2023-11-30T12:28:38.429Z,10.15
2023-11-30T12:31:07.053Z,11.60
2023-11-30T12:33:34.669Z,12.80
2023-11-30T12:36:02.064Z,16.40
2023-11-30T12:38:32.026Z,11.38
2023-11-30T12:40:59.416Z,8.20
2023-11-30T12:43:27.357Z,11.02
2023-11-30T12:45:54.846Z,12.50
2023-11-30T12:48:23.007Z,11.25
2023-11-30T12:50:51.916Z,11.60
2023-11-30T12:53:19.467Z,11.10
2023-11-30T12:55:46.969Z,10.88
2023-11-30T12:58:14.601Z,10.65
2023-11-30T13:00:41.940Z,11.10
2023-11-30T13:03:09.506Z,9.80
2023-11-30T13:05:37.014Z,10.55
2023-11-30T13:08:04.584Z,11.60
2023-11-30T13:10:33.517Z,11.05
2023-11-30T13:13:01.765Z,14.10
2023-11-30T13:15:29.092Z,15.88
2023-11-30T13:17:56.611Z,12.48
2023-11-30T13:20:24.190Z,12.35
2023-11-30T13:22:51.633Z,6.50
2023-11-30T13:25:19.467Z,14.57
2023-11-30T13:27:48.062Z,15.90
2023-11-30T13:30:17.345Z,12.48
2023-11-30T13:32:45.724Z,10.93
2023-11-30T13:35:13.232Z,11.25
2023-11-30T13:37:40.761Z,12.63
2023-11-30T13:40:09.173Z,10.95
2023-11-30T13:42:37.022Z,11.90
2023-11-30T13:45:06.840Z,11.48
2023-11-30T13:47:34.629Z,15.77
2023-11-30T13:50:02.139Z,12.15
2023-11-30T13:52:29.502Z,15.60
2023-11-30T13:54:57.981Z,13.50
2023-11-30T13:57:25.612Z,12.93
2023-11-30T13:59:55.118Z,14.88
2023-11-30T14:02:22.763Z,16.65
2023-11-30T14:04:50.865Z,15.10
2023-11-30T14:07:18.516Z,15.70
2023-11-30T14:09:46.236Z,16.40
2023-11-30T14:12:13.798Z,15.07
2023-11-30T14:14:41.840Z,15.77
2023-11-30T14:17:11.278Z,14.77
2023-11-30T14:19:38.805Z,18.25
2023-11-30T14:22:09.046Z,15.32
2023-11-30T14:24:37.348Z,16.90
2023-11-30T14:27:05.348Z,17.25
2023-11-30T14:29:32.862Z,11.25
2023-11-30T14:32:00.340Z,15.00
2023-11-30T14:34:27.907Z,11.55
2023-11-30T14:36:55.274Z,13.48
2023-11-30T14:39:30.106Z,13.73
2023-11-30T14:41:58.841Z,15.52
2023-11-30T14:44:27.016Z,14.60
2023-11-30T14:46:54.707Z,11.60
2023-11-30T14:49:22.094Z,17.35
2023-11-30T14:51:49.854Z,11.82
2023-11-30T14:54:17.221Z,13.05
2023-11-30T14:56:45.012Z,14.57
2023-11-30T14:59:12.302Z,11.48
2023-11-30T15:01:40.239Z,13.75
2023-11-30T15:04:10.203Z,12.82
2023-11-30T15:06:41.250Z,16.60
2023-11-30T15:09:09.600Z,15.63
2023-11-30T15:11:38.702Z,12.32
2023-11-30T15:14:06.645Z,17.75
2023-11-30T15:16:34.236Z,13.35
2023-11-30T15:19:01.762Z,13.95
2023-11-30T15:21:30.208Z,14.70
2023-11-30T15:23:57.652Z,15.45
2023-11-30T15:26:25.013Z,18.40
2023-11-30T15:28:56.979Z,14.15
2023-11-30T15:31:25.594Z,14.23
2023-11-30T15:33:53.575Z,13.10
2023-11-30T15:36:22.311Z,12.88
2023-11-30T15:38:49.946Z,12.45
2023-11-30T15:41:18.580Z,10.68
2023-11-30T15:43:46.126Z,12.05
2023-11-30T15:46:13.524Z,13.02
2023-11-30T15:48:41.227Z,14.63
2023-11-30T15:51:09.557Z,13.75
2023-11-30T15:53:38.213Z,13.88
2023-11-30T15:56:05.915Z,15.88
2023-11-30T15:58:33.242Z,16.75
2023-11-30T16:01:00.735Z,16.70
2023-11-30T16:03:28.121Z,20.77
2023-11-30T16:05:55.619Z,19.25
2023-11-30T16:08:22.915Z,22.80
2023-11-30T16:10:50.716Z,16.45
2023-11-30T16:13:18.079Z,18.73
2023-11-30T16:15:45.521Z,20.23
2023-11-30T16:18:12.917Z,17.60
2023-11-30T16:20:40.403Z,25.27
2023-11-30T16:23:07.862Z,26.33
2023-11-30T16:25:35.244Z,19.27
2023-11-30T16:28:03.643Z,21.67
2023-11-30T16:30:31.010Z,23.02
2023-11-30T16:32:58.382Z,22.40
2023-11-30T16:35:25.773Z,26.33
2023-11-30T16:37:53.133Z,23.15
2023-11-30T16:40:20.458Z,22.52
2023-11-30T16:42:48.006Z,22.75
2023-11-30T16:45:15.550Z,23.38
2023-11-30T16:47:43.066Z,23.70
2023-11-30T16:50:14.989Z,22.52
2023-11-30T16:52:43.884Z,23.70
2023-11-30T16:55:13.564Z,25.30
2023-11-30T16:57:41.131Z,21.60
2023-11-30T17:00:09.312Z,21.58
2023-11-30T17:02:36.646Z,20.60
2023-11-30T17:05:04.626Z,29.70
2023-11-30T17:07:32.126Z,23.38
2023-11-30T17:09:59.726Z,23.15
2023-11-30T17:12:27.152Z,19.27
2023-11-30T17:14:54.700Z,20.80
2023-11-30T17:17:22.045Z,18.10
2023-11-30T17:19:49.439Z,19.35
2023-11-30T17:22:17.255Z,20.38
2023-11-30T17:24:44.871Z,27.73
2023-11-30T17:27:12.240Z,20.23
2023-11-30T17:29:41.223Z,21.52
2023-11-30T17:32:09.582Z,19.40
2023-11-30T17:34:37.516Z,21.75
2023-11-30T17:37:05.327Z,17.95
2023-11-30T17:39:32.810Z,29.45
2023-11-30T17:42:00.310Z,26.90
2023-11-30T17:44:27.827Z,21.35
2023-11-30T17:46:55.517Z,22.08
2023-11-30T17:49:24.235Z,24.08
2023-11-30T17:51:51.936Z,21.90
2023-11-30T17:54:19.740Z,20.20
2023-11-30T17:56:47.148Z,21.38
2023-11-30T17:59:14.663Z,21.95
2023-11-30T18:01:42.118Z,20.08
2023-11-30T18:04:09.684Z,22.70
2023-11-30T18:06:37.232Z,22.60
2023-11-30T18:09:04.887Z,24.20
2023-11-30T18:11:32.258Z,19.08
2023-11-30T18:13:59.655Z,21.08
2023-11-30T18:16:28.913Z,24.73
2023-11-30T18:18:56.535Z,20.20
2023-11-30T18:21:24.108Z,19.63
2023-11-30T18:23:51.647Z,24.42
2023-11-30T18:26:20.068Z,19.58
2023-11-30T18:28:51.219Z,22.15
2023-11-30T18:31:22.521Z,20.55
2023-11-30T18:33:51.569Z,24.40
2023-11-30T18:36:19.138Z,20.05
2023-11-30T18:38:50.806Z,18.35
2023-11-30T18:41:21.498Z,22.98
2023-11-30T18:43:50.746Z,23.88
2023-11-30T18:46:19.562Z,23.55
2023-11-30T18:48:51.724Z,22.27
2023-11-30T18:51:21.952Z,21.45
2023-11-30T18:53:49.829Z,18.35
2023-11-30T18:56:17.470Z,17.27
2023-11-30T18:58:45.456Z,21.92
2023-11-30T19:01:16.621Z,25.85
2023-11-30T19:03:44.449Z,20.20
2023-11-30T19:06:18.976Z,21.25
2023-11-30T19:08:47.353Z,20.10
2023-11-30T19:11:17.341Z,17.17
2023-11-30T19:13:45.170Z,17.48
2023-11-30T19:16:22.022Z,21.00
2023-11-30T19:18:51.265Z,20.00
2023-11-30T19:21:19.182Z,21.00
2023-11-30T19:23:46.862Z,18.27
2023-11-30T19:26:14.602Z,20.10
2023-11-30T19:28:44.857Z,23.33
2023-11-30T19:31:13.337Z,18.63
2023-11-30T19:33:40.873Z,19.77
2023-11-30T19:36:08.912Z,26.30
2023-11-30T19:38:36.352Z,25.95
2023-11-30T19:41:03.684Z,23.17
2023-11-30T19:43:31.045Z,27.25
2023-11-30T19:46:01.187Z,28.13
2023-11-30T19:48:30.213Z,27.08
2023-11-30T19:50:57.665Z,22.33
2023-11-30T19:53:25.144Z,24.77
2023-11-30T19:55:52.587Z,28.50
2023-11-30T19:58:20.100Z,24.10
2023-11-30T20:00:49.446Z,27.42
2023-11-30T20:03:17.021Z,26.15
2023-11-30T20:05:44.409Z,32.25
2023-11-30T20:08:11.896Z,25.08
2023-11-30T20:10:39.242Z,31.08
2023-11-30T20:13:06.654Z,30.25
2023-11-30T20:15:34.845Z,32.22
2023-11-30T20:18:03.350Z,28.45
2023-11-30T20:20:32.013Z,27.00
2023-11-30T20:22:59.932Z,32.60
2023-11-30T20:25:27.312Z,31.50
2023-11-30T20:27:54.763Z,30.23
2023-11-30T20:30:23.178Z,30.80
2023-11-30T20:32:51.042Z,34.55
2023-11-30T20:35:18.510Z,32.60
2023-11-30T20:37:46.865Z,31.00
2023-11-30T20:40:14.598Z,33.70
2023-11-30T20:42:44.401Z,31.10
2023-11-30T20:45:11.858Z,38.55
2023-11-30T20:47:39.397Z,32.67
2023-11-30T20:50:07.321Z,32.58
2023-11-30T20:52:35.556Z,36.17
2023-11-30T20:55:04.768Z,39.00
2023-11-30T20:57:32.651Z,32.33
2023-11-30T21:00:00.112Z,38.22
2023-11-30T21:02:27.643Z,39.65
2023-11-30T21:04:55.113Z,37.60
2023-11-30T21:07:22.550Z,35.28
2023-11-30T21:09:50.096Z,38.08
2023-11-30T21:12:17.617Z,35.92
2023-11-30T21:14:44.992Z,33.67
2023-11-30T21:17:12.583Z,37.72
2023-11-30T21:19:40.035Z,37.15
2023-11-30T21:22:08.023Z,37.50
2023-11-30T21:24:37.381Z,33.80
2023-11-30T21:27:05.722Z,39.83
2023-11-30T21:29:33.078Z,38.92
2023-11-30T21:32:00.607Z,39.25
2023-11-30T21:34:28.028Z,40.60
2023-11-30T21:36:55.517Z,43.35
2023-11-30T21:39:22.888Z,32.08
2023-11-30T21:41:50.619Z,37.25
2023-11-30T21:44:22.817Z,37.22
2023-11-30T21:46:50.412Z,37.05
2023-11-30T21:49:20.289Z,40.55
2023-11-30T21:51:48.439Z,41.00
2023-11-30T21:54:15.981Z,41.00
2023-11-30T21:56:43.623Z,41.25
2023-11-30T21:59:11.030Z,44.92
2023-11-30T22:01:38.739Z,40.38
2023-11-30T22:04:07.248Z,41.40
2023-11-30T22:06:34.778Z,43.95
2023-11-30T22:09:02.097Z,42.30
2023-11-30T22:11:29.689Z,45.72
2023-11-30T22:13:57.244Z,42.90
2023-11-30T22:16:33.325Z,43.67
2023-11-30T22:19:05.904Z,38.63
2023-11-30T22:21:33.481Z,36.85
2023-11-30T22:24:01.011Z,39.72
2023-11-30T22:26:29.094Z,37.22
2023-11-30T22:28:57.250Z,37.85
2023-11-30T22:31:25.037Z,41.90
2023-11-30T22:33:52.706Z,45.25
2023-11-30T22:36:20.468Z,36.38
2023-11-30T22:38:48.229Z,40.40
2023-11-30T22:41:15.857Z,44.35
2023-11-30T22:43:44.644Z,42.85
2023-11-30T22:46:19.380Z,42.05
2023-11-30T22:48:49.852Z,50.10
2023-11-30T22:51:17.950Z,40.70
2023-11-30T22:53:45.437Z,43.58
2023-11-30T22:56:20.836Z,38.08
2023-11-30T22:58:48.786Z,43.95
2023-11-30T23:01:16.999Z,44.72
2023-11-30T23:03:45.509Z,45.28
2023-11-30T23:06:16.401Z,43.75
2023-11-30T23:08:44.201Z,47.58
2023-11-30T23:11:12.296Z,47.35
2023-11-30T23:13:40.694Z,44.95
2023-11-30T23:16:08.854Z,45.05
2023-11-30T23:18:36.637Z,50.92
2023-11-30T23:21:04.714Z,40.40
2023-11-30T23:23:32.090Z,45.47
2023-11-30T23:25:59.515Z,44.03
2023-11-30T23:28:27.311Z,42.13
2023-11-30T23:30:54.872Z,49.33
2023-11-30T23:33:22.296Z,45.88
2023-11-30T23:35:49.681Z,46.55
2023-11-30T23:38:17.030Z,46.92
2023-11-30T23:40:44.565Z,51.20
2023-11-30T23:43:11.925Z,48.85
2023-11-30T23:45:39.447Z,44.55
2023-11-30T23:48:07.020Z,44.13
2023-11-30T23:50:34.623Z,51.05
2023-11-30T23:53:02.124Z,47.47
2023-11-30T23:55:29.801Z,45.20
2023-11-30T23:57:58.171Z,44.78
